This is the latest recevied weather packets stored in our database for station/object IZ8QAD-4. If no packets are shown the sender has not sent any weather packets the latest 10 day(s).
| Time | Temp. | Humidity | Pressure | Rain* | Wind** | Luminosity | Snow |
|---|---|---|---|---|---|---|---|
| 1777670185 | 23.33° C | 30% | 974.5 hPa | - | - | - | - |
| 1777668385 | 23.33° C | 30% | 974.4 hPa | - | - | - | - |
| 1777666585 | 23.33° C | 31% | 974.2 hPa | - | - | - | - |
| 1777664789 | 23.33° C | 30% | 973.9 hPa | - | - | - | - |
| 1777662989 | 23.33° C | 30% | 973.8 hPa | - | - | - | - |
| 1777661188 | 22.78° C | 28% | 973.6 hPa | - | - | - | - |
| 1777659388 | 22.78° C | 28% | 973.4 hPa | - | - | - | - |
| 1777657588 | 22.78° C | 28% | 973 hPa | - | - | - | - |
| 1777655788 | 22.78° C | 27% | 972.8 hPa | - | - | - | - |
| 1777653987 | 22.78° C | 28% | 972.5 hPa | - | - | - | - |
| 1777652187 | 22.78° C | 28% | 972.5 hPa | - | - | - | - |
| 1777650387 | 22.78° C | 28% | 972.2 hPa | - | - | - | - |
| 1777646786 | 22.78° C | 28% | 972.6 hPa | - | - | - | - |
| 1777644985 | 23.33° C | 28% | 972.6 hPa | - | - | - | - |
| 1777643186 | 23.33° C | 28% | 972.7 hPa | - | - | - | - |
| 1777641386 | 23.33° C | 28% | 972.9 hPa | - | - | - | - |
| 1777639586 | 23.33° C | 28% | 972.9 hPa | - | - | - | - |
| 1777637786 | 23.33° C | 28% | 973.1 hPa | - | - | - | - |
| 1777635985 | 23.33° C | 29% | 973.1 hPa | - | - | - | - |
| 1777634185 | 23.33° C | 29% | 973.3 hPa | - | - | - | - |
| 1777632385 | 23.89° C | 33% | 973.5 hPa | - | - | - | - |
| 1777630585 | 24.44° C | 39% | 973.3 hPa | - | - | - | - |
| 1777628785 | 23.33° C | 33% | 973.3 hPa | - | - | - | - |
| 1777626985 | 23.33° C | 36% | 973.4 hPa | - | - | - | - |
| 1777625184 | 23.33° C | 29% | 973.2 hPa | - | - | - | - |
* Rain since midnight (hover to see other rain measurements)
** Current wind speed in m/s (hover to see current wind gust speed)